Thunder radar more information blitzortung!


Radar de pluja more information rain snow radar


Visita la nostra xarxa de llocs de meteo:

Template documentation
and downloads

And another site



No particular awareness of the weather is required.    There are no Weather-warnings

Pagina Historial Weather Underground text

Diari Resum Juny 22, 2017 Unitats:  Mètric    Imperial   Tant
« Previous Dia
SegĂźent Dia »
Diari Setmana Mensual Anual Personalitzada
  Maxima: Minima: Media:
Temperatura: -17.8 °C -5.4 °C -1.3 °C
Punt de rosada: -17.8 °C -11.3 °C -9.9 °C
Humitat: Humidity % 30 % 40 %
Wind Speed: 0 km/h 0 km/h 14.8 km/h
RĂ fegues de vent: 0 km/h - -
Vent:- - SW
Pression baro: 0 hPa 34361.1 hPa -
Precipitacions: 0 mm    
Historical Graphs
 
 
Dades de taula per Juny 22, 2017
Temps Temperatura Punt de rosada Pression baro Vent Wind Speed RĂ fegues de vent Humitat Rainfall Rate (Hourly)
-17.8 °C -17.8 °C 0 hPa Calm     Humidity % 0 mm
00:01 -4.4 °C -9.6 °C 34395 hPa West 9 km/h 9 km/h 56 % 0 mm
04:55 -2.6 °C -7.9 °C 34361.1 hPa SW 2.6 km/h 10.3 km/h 56 % 0 mm
05:05 -2.2 °C -7.7 °C 34361.1 hPa Calm   7.7 km/h 55 % 0 mm
05:15 -1.7 °C -7.6 °C 34361.1 hPa SSW 2.6 km/h 5.1 km/h 53 % 0 mm
05:25 -1.5 °C -7.7 °C 34361.1 hPa SW 2.6 km/h 5.1 km/h 51 % 0 mm
05:35 -1.6 °C -7.8 °C 34361.1 hPa SW 5.1 km/h 7.7 km/h 51 % 0 mm
10:38 -1.5 °C -8.1 °C 34395 hPa SW 11.9 km/h 11.9 km/h 49 % 0 mm
10:43 -1.2 °C -7.7 °C 34395 hPa SSW 9 km/h 9 km/h 49 % 0 mm
10:48 -1.1 °C -7.8 °C 34395 hPa WSW 9 km/h 9 km/h 48 % 0 mm
10:53 -0.9 °C -7.7 °C 34395 hPa SW 11.9 km/h 11.9 km/h 48 % 0 mm
10:58 -0.7 °C -7.6 °C 34428.8 hPa SSW 9 km/h 9 km/h 48 % 0 mm
11:03 -0.6 °C -7.8 °C 34428.8 hPa SSE 11.1 km/h 11.1 km/h 46 % 0 mm
11:08 -0.6 °C -7.8 °C 34428.8 hPa WSW 9 km/h 9 km/h 46 % 0 mm
11:13 -0.6 °C -7.9 °C 34395 hPa SSE 11.9 km/h 11.9 km/h 45 % 0 mm
11:18 -0.1 °C -7.7 °C 34395 hPa SSW 9 km/h 9 km/h 44 % 0 mm
11:23 0.2 °C -7.7 °C 34395 hPa WSW 11.9 km/h 11.9 km/h 43 % 0 mm
11:28 0.4 °C -7.5 °C 34395 hPa West 6 km/h 6 km/h 43 % 0 mm
11:33 0.6 °C -7.8 °C 34395 hPa SW 14 km/h 14 km/h 41 % 0 mm
11:38 0.7 °C -7.7 °C 34395 hPa SW 6 km/h 6 km/h 41 % 0 mm
11:43 0.6 °C -8 °C 34395 hPa SSW 6.8 km/h 6.8 km/h 40 % 0 mm
11:48 0.7 °C -7.9 °C 34395 hPa West 9 km/h 9 km/h 40 % 0 mm
11:53 0.8 °C -7.9 °C 34395 hPa SSW 12.2 km/h 12.2 km/h 39 % 0 mm
11:58 0.8 °C -8.2 °C 34361.1 hPa NW 11.9 km/h 11.9 km/h 38 % 0 mm
12:03 0.9 °C -8.1 °C 34361.1 hPa West 15 km/h 15 km/h 38 % 0 mm
12:08 1.1 °C -8.2 °C 34361.1 hPa WSW 3.7 km/h 3.7 km/h 37 % 0 mm
12:13 1.3 °C -8.1 °C 34395 hPa WSW 11.9 km/h 11.9 km/h 37 % 0 mm
12:18 1.3 °C -8.2 °C 34395 hPa WSW 9 km/h 9 km/h 36 % 0 mm
12:20 1.4 °C -8.2 °C 34395 hPa SW 9 km/h 9 km/h 36 % 0 mm
12:25 1.7 °C -8.4 °C 34395 hPa WSW 11.9 km/h 11.9 km/h 34 % 0 mm
12:30 1.9 °C -8.2 °C 34395 hPa WSW 9 km/h 9.3 km/h 34 % 0 mm
12:35 1.4 °C -8.9 °C 34395 hPa SE 15 km/h 15 km/h 33 % 0 mm
12:40 1.6 °C -8.8 °C 34395 hPa SW 11.9 km/h 11.9 km/h 33 % 0 mm
12:45 1.6 °C -9 °C 34395 hPa SW 15.3 km/h 15.3 km/h 32 % 0 mm
12:50 1.8 °C -8.9 °C 34395 hPa SW 11.9 km/h 11.9 km/h 32 % 0 mm
12:55 1.8 °C -9.1 °C 34395 hPa SW 12.2 km/h 12.2 km/h 31 % 0 mm
13:00 1.9 °C -9.1 °C 34395 hPa WSW 9.3 km/h 9.3 km/h 31 % 0 mm
13:05 1.9 °C -9.1 °C 34395 hPa SW 15 km/h 15 km/h 31 % 0 mm
13:10 1.8 °C -9.1 °C 34395 hPa WSW 20.9 km/h 20.9 km/h 31 % 0 mm
13:15 2.2 °C -8.6 °C 34395 hPa South 11.9 km/h 11.9 km/h 32 % 0 mm
13:20 2.2 °C -8.8 °C 34395 hPa West 20.9 km/h 20.9 km/h 31 % 0 mm
13:25 1.9 °C -9 °C 34395 hPa WSW 20.9 km/h 20.9 km/h 31 % 0 mm
13:30 1.9 °C -8.7 °C 34361.1 hPa SW 15 km/h 15 km/h 32 % 0 mm
13:35 2.1 °C -8.8 °C 34361.1 hPa SW 19.2 km/h 19.2 km/h 31 % 0 mm
13:40 2.1 °C -8.7 °C 34361.1 hPa SSW 17.9 km/h 17.9 km/h 32 % 0 mm
13:45 1.9 °C -9.3 °C 34361.1 hPa South 26.9 km/h 26.9 km/h 30 % 0 mm
13:50 1.8 °C -9.2 °C 34361.1 hPa WSW 20.9 km/h 20.9 km/h 31 % 0 mm
13:51 1.7 °C -9.2 °C 34361.1 hPa SW 25.4 km/h 25.4 km/h 31 % 0 mm
13:56 1.7 °C -9.2 °C 34361.1 hPa SW 29.8 km/h 29.8 km/h 31 % 0 mm
14:01 1.7 °C -8.9 °C 34395 hPa WSW 20.9 km/h 20.9 km/h 32 % 0 mm
14:06 1.6 °C -8.8 °C 34395 hPa SSW 27.7 km/h 27.7 km/h 33 % 0 mm
14:11 1.6 °C -8.8 °C 34395 hPa WSW 15 km/h 15 km/h 33 % 0 mm
14:16 1.7 °C -8.9 °C 34395 hPa SSW 32.8 km/h 32.8 km/h 32 % 0 mm
14:21 1.3 °C -9 °C 34395 hPa SW 32.8 km/h 32.8 km/h 33 % 0 mm
14:26 1.3 °C -9.1 °C 34395 hPa SW 35.7 km/h 35.7 km/h 33 % 0 mm
14:31 1.4 °C -8.9 °C 34361.1 hPa West 20.9 km/h 20.9 km/h 33 % 0 mm
14:36 1.3 °C -9 °C 34361.1 hPa SSE 17.9 km/h 17.9 km/h 33 % 0 mm
14:41 1.4 °C -9.2 °C 34361.1 hPa SW 26.9 km/h 26.9 km/h 32 % 0 mm
14:46 1.4 °C -9.2 °C 34361.1 hPa WSW 23.8 km/h 23.8 km/h 32 % 0 mm
14:51 1.4 °C -9.2 °C 34361.1 hPa SW 32.8 km/h 32.8 km/h 32 % 0 mm
14:56 1.1 °C -9.4 °C 34361.1 hPa SW 29.8 km/h 29.8 km/h 32 % 0 mm
15:01 1.2 °C -9.4 °C 34361.1 hPa West 25.4 km/h 25.4 km/h 32 % 0 mm
15:06 1.2 °C -9.3 °C 34361.1 hPa SW 20.9 km/h 20.9 km/h 32 % 0 mm
15:11 1.2 °C -9.4 °C 34361.1 hPa WSW 26.9 km/h 26.9 km/h 32 % 0 mm
15:16 1.2 °C -9.3 °C 34361.1 hPa SSW 26.9 km/h 26.9 km/h 32 % 0 mm
15:21 1.1 °C -9.5 °C 34361.1 hPa WSW 29.8 km/h 29.8 km/h 32 % 0 mm
15:26 1.2 °C -9.7 °C 34361.1 hPa SW 27.2 km/h 27.2 km/h 31 % 0 mm
15:31 1.2 °C -9.6 °C 34361.1 hPa SSW 20.9 km/h 20.9 km/h 31 % 0 mm
15:36 1.4 °C -9.8 °C 34361.1 hPa South 17.9 km/h 17.9 km/h 30 % 0 mm
15:41 1.1 °C -10.1 °C 34361.1 hPa WSW 26.9 km/h 26.9 km/h 30 % 0 mm
15:46 1.3 °C -9.8 °C 34361.1 hPa WSW 20.9 km/h 20.9 km/h 30 % 0 mm
15:51 1.2 °C -9.9 °C 34361.1 hPa SSW 33.6 km/h 33.6 km/h 30 % 0 mm
15:56 1.2 °C -9.9 °C 34361.1 hPa SW 17.9 km/h 17.9 km/h 30 % 0 mm
16:01 1 °C -10.1 °C 34361.1 hPa SSW 26.9 km/h 26.9 km/h 30 % 0 mm
16:06 0.9 °C -9.9 °C 34361.1 hPa WSW 23.8 km/h 23.8 km/h 31 % 0 mm
16:11 0.8 °C -10.1 °C 34361.1 hPa WSW 26.9 km/h 26.9 km/h 31 % 0 mm
16:16 0.8 °C -9.9 °C 34361.1 hPa SW 35.7 km/h 35.7 km/h 31 % 0 mm
16:21 0.8 °C -10.1 °C 34361.1 hPa South 26.9 km/h 26.9 km/h 31 % 0 mm
16:26 0.7 °C -10.4 °C 34361.1 hPa SW 35.7 km/h 35.7 km/h 30 % 0 mm
16:31 0.5 °C -10.5 °C 34361.1 hPa South 32.8 km/h 32.8 km/h 30 % 0 mm
16:36 0.4 °C -10.3 °C 34361.1 hPa SSW 15.6 km/h 15.6 km/h 31 % 0 mm
16:41 0.2 °C -10.5 °C 34361.1 hPa SW 35.7 km/h 35.7 km/h 31 % 0 mm
16:46 0.5 °C -10.2 °C 34361.1 hPa SW 23.8 km/h 23.8 km/h 31 % 0 mm
16:51 0.4 °C -10.3 °C 34361.1 hPa West 26.4 km/h 26.4 km/h 31 % 0 mm
16:56 0.4 °C -10.4 °C 34361.1 hPa SW 23.8 km/h 23.8 km/h 31 % 0 mm
17:01 0.2 °C -10.6 °C 34395 hPa South 35.7 km/h 35.7 km/h 31 % 0 mm
17:06 0.2 °C -10.6 °C 34395 hPa SSW 32.8 km/h 32.8 km/h 31 % 0 mm
17:11 0.2 °C -10.6 °C 34395 hPa SSW 20.9 km/h 20.9 km/h 31 % 0 mm
17:16 0 °C -10.7 °C 34395 hPa SW 20.9 km/h 20.9 km/h 31 % 0 mm
17:21 -0.1 °C -11.1 °C 34395 hPa SW 26.9 km/h 26.9 km/h 30 % 0 mm
17:26 -0.1 °C -10.8 °C 34395 hPa SW 26.9 km/h 26.9 km/h 31 % 0 mm
17:31 -0.2 °C -11.1 °C 34395 hPa WSW 15.3 km/h 15.3 km/h 30 % 0 mm
17:36 -0.1 °C -10.7 °C 34395 hPa WSW 34.1 km/h 34.1 km/h 31 % 0 mm
17:41 -0.1 °C -10.8 °C 34395 hPa SW 32.8 km/h 32.8 km/h 31 % 0 mm
17:46 -0.4 °C -11.3 °C 34361.1 hPa SW 29.8 km/h 29.8 km/h 30 % 0 mm
17:51 -0.3 °C -11.2 °C 34361.1 hPa South 23.8 km/h 23.8 km/h 30 % 0 mm
17:56 -0.2 °C -10.9 °C 34361.1 hPa SW 20.9 km/h 20.9 km/h 31 % 0 mm
18:01 -0.3 °C -10.9 °C 34361.1 hPa SSW 23.8 km/h 23.8 km/h 31 % 0 mm
18:06 -0.2 °C -10.9 °C 34361.1 hPa WNW 20.9 km/h 20.9 km/h 31 % 0 mm
18:11 -0.2 °C -10.9 °C 34361.1 hPa South 17.9 km/h 17.9 km/h 31 % 0 mm
18:16 -0.4 °C -10.8 °C 34361.1 hPa WSW 20.9 km/h 20.9 km/h 32 % 0 mm
18:21 -0.4 °C -10.8 °C 34361.1 hPa SW 15 km/h 15 km/h 32 % 0 mm
18:26 -0.4 °C -10.5 °C 34361.1 hPa SSW 20.9 km/h 20.9 km/h 33 % 0 mm
18:31 -0.4 °C -10.5 °C 34395 hPa South 15 km/h 15 km/h 33 % 0 mm
18:36 -0.6 °C -10.7 °C 34395 hPa SW 15 km/h 15 km/h 33 % 0 mm
18:41 -0.6 °C -10.7 °C 34395 hPa SW 29.8 km/h 29.8 km/h 33 % 0 mm
18:46 -0.6 °C -10.4 °C 34361.1 hPa NW 11.9 km/h 11.9 km/h 34 % 0 mm
18:51 -0.6 °C -10.7 °C 34361.1 hPa WSW 9.8 km/h 9.8 km/h 33 % 0 mm
18:56 -0.7 °C -10.8 °C 34361.1 hPa West 23.8 km/h 23.8 km/h 33 % 0 mm
19:01 -0.7 °C -10.7 °C 34361.1 hPa South 18.3 km/h 18.3 km/h 33 % 0 mm
19:06 -0.7 °C -10.5 °C 34361.1 hPa WSW 11.9 km/h 11.9 km/h 34 % 0 mm
19:11 -0.8 °C -10.6 °C 34361.1 hPa SSW 11.9 km/h 11.9 km/h 34 % 0 mm
19:15 -4.4 °C -10.4 °C 34462.7 hPa SW 7.7 km/h 7.7 km/h 51 % 0 mm
19:16 -0.8 °C -10.6 °C 34361.1 hPa SW 22 km/h 22 km/h 34 % 0 mm
19:21 -1.1 °C -10.8 °C 34361.1 hPa South 15 km/h 15 km/h 34 % 0 mm
19:25 -4.4 °C -10.1 °C 34462.7 hPa SW 2.6 km/h 7.7 km/h 53 % 0 mm
19:26 -1.1 °C -10.9 °C 34361.1 hPa SSE 15 km/h 15 km/h 34 % 0 mm
19:31 -1.3 °C -10.8 °C 34395 hPa SW 11.9 km/h 11.9 km/h 35 % 0 mm
19:35 -4.5 °C -10 °C 34462.7 hPa WSW 5.1 km/h 7.7 km/h 54 % 0 mm
19:36 -1.3 °C -10.8 °C 34395 hPa WSW 11.9 km/h 11.9 km/h 35 % 0 mm
19:41 -1.4 °C -10.7 °C 34395 hPa SE 6 km/h 6 km/h 36 % 0 mm
19:45 -4.6 °C -9.9 °C 34462.7 hPa SW 5.1 km/h 7.7 km/h 55 % 0 mm
19:46 -1.4 °C -10.7 °C 34395 hPa WSW 9 km/h 9 km/h 36 % 0 mm
19:51 -1.6 °C -10.8 °C 34395 hPa West 15 km/h 15 km/h 36 % 0 mm
19:55 -4.6 °C -9.7 °C 34462.7 hPa WSW 2.6 km/h 7.7 km/h 56 % 0 mm
19:56 -1.6 °C -10.8 °C 34395 hPa SW 3.7 km/h   36 % 0 mm
20:01 -1.7 °C -10.9 °C 34395 hPa WSW 6 km/h 6 km/h 36 % 0 mm
20:05 -4.6 °C -9.8 °C 34462.7 hPa WSW 5.1 km/h 7.7 km/h 56 % 0 mm
20:06 -1.7 °C -10.7 °C 34395 hPa WSW 11.9 km/h 11.9 km/h 37 % 0 mm
20:11 -1.8 °C -10.5 °C 34395 hPa WSW 9.8 km/h 9.8 km/h 38 % 0 mm
20:15 -4.7 °C -9.7 °C 34462.7 hPa SW 5.1 km/h 7.7 km/h 57 % 0 mm
20:16 -1.9 °C -10.6 °C 34395 hPa South 17.9 km/h 17.9 km/h 38 % 0 mm
20:21 -2 °C -10.7 °C 34395 hPa SW 17.9 km/h 17.9 km/h 38 % 0 mm
20:25 -4.7 °C -9.9 °C 34462.7 hPa SW 7.7 km/h 10.3 km/h 56 % 0 mm
20:26 -2.1 °C -10.6 °C 34395 hPa SW 8.5 km/h 8.5 km/h 39 % 0 mm
20:31 -2.1 °C -10.6 °C 34395 hPa SW 9 km/h 9 km/h 39 % 0 mm
20:35 -4.7 °C -9.9 °C 34462.7 hPa SW 7.7 km/h 10.3 km/h 56 % 0 mm
20:36 -2.2 °C -10.7 °C 34395 hPa SW 11.9 km/h 11.9 km/h 39 % 0 mm
20:41 -2.3 °C -10.7 °C 34395 hPa SW 11.9 km/h 11.9 km/h 39 % 0 mm
20:45 -4.7 °C -9.9 °C 34462.7 hPa SW 5.1 km/h 7.7 km/h 56 % 0 mm
20:46 -2.4 °C -10.8 °C 34395 hPa SW 15 km/h 15 km/h 39 % 0 mm
20:48 -2.4 °C -10.8 °C 34395 hPa SW 11.9 km/h 11.9 km/h 39 % 0 mm
20:53 -2.5 °C -10.9 °C 34395 hPa West 15.3 km/h 15.3 km/h 39 % 0 mm
20:55 -4.8 °C -9.8 °C 34428.8 hPa WSW 5.1 km/h 7.7 km/h 57 % 0 mm
20:58 -2.6 °C -11.1 °C 34395 hPa SW 11.9 km/h 11.9 km/h 39 % 0 mm
21:03 -2.7 °C -10.9 °C 34361.1 hPa SW 9.3 km/h 9.3 km/h 40 % 0 mm
21:05 -4.8 °C -9.8 °C 34462.7 hPa WSW 2.6 km/h 5.1 km/h 57 % 0 mm
21:08 -2.8 °C -10.8 °C 34361.1 hPa WSW 9 km/h 9 km/h 41 % 0 mm
21:13 -2.8 °C -10.6 °C 34361.1 hPa SW 11.9 km/h 11.9 km/h 42 % 0 mm
21:15 -4.9 °C -9.7 °C 34462.7 hPa WSW 5.1 km/h 7.7 km/h 58 % 0 mm
21:18 -2.9 °C -10.7 °C 34361.1 hPa SW 11.9 km/h 11.9 km/h 42 % 0 mm
21:23 -2.9 °C -10.7 °C 34361.1 hPa West 11.9 km/h 11.9 km/h 42 % 0 mm
21:25 -5 °C -9.8 °C 34428.8 hPa SW 5.1 km/h 5.1 km/h 58 % 0 mm
21:28 -3 °C -10.8 °C 34361.1 hPa WSW 9 km/h 9 km/h 42 % 0 mm
21:33 -3.1 °C -10.8 °C 34361.1 hPa SW 15 km/h 15 km/h 42 % 0 mm
21:35 -5.1 °C -9.8 °C 34462.7 hPa WSW 5.1 km/h 5.1 km/h 59 % 0 mm
21:38 -3.2 °C -10.9 °C 34361.1 hPa SW 9.8 km/h 9.8 km/h 42 % 0 mm
21:43 -3.2 °C -10.9 °C 34361.1 hPa SW 11.9 km/h 11.9 km/h 42 % 0 mm
21:45 -5.1 °C -9.8 °C 34462.7 hPa WSW 5.1 km/h 7.7 km/h 59 % 0 mm
21:48 -3.3 °C -10.8 °C 34395 hPa West 15.6 km/h 15.6 km/h 43 % 0 mm
21:53 -3.3 °C -10.9 °C 34395 hPa SW 9.8 km/h 9.8 km/h 43 % 0 mm
21:55 -5.1 °C -9.8 °C 34462.7 hPa WSW 5.1 km/h 5.1 km/h 59 % 0 mm
21:58 -3.4 °C -10.9 °C 34395 hPa WSW 9 km/h 9 km/h 43 % 0 mm
22:03 -3.4 °C -10.9 °C 34395 hPa WSW 11.9 km/h 11.9 km/h 43 % 0 mm
22:05 -5.2 °C -9.7 °C 34462.7 hPa SW 5.1 km/h 7.7 km/h 60 % 0 mm
22:08 -3.5 °C -11 °C 34395 hPa SW 18.3 km/h 18.3 km/h 43 % 0 mm
22:13 -3.6 °C -11.1 °C 34395 hPa SW 11.9 km/h 11.9 km/h 43 % 0 mm
22:15 -5.2 °C -9.8 °C 34462.7 hPa SW 5.1 km/h 7.7 km/h 60 % 0 mm
22:18 -3.6 °C -11.1 °C 34361.1 hPa West 9.8 km/h 9.8 km/h 43 % 0 mm
22:23 -3.6 °C -10.9 °C 34361.1 hPa WSW 11.9 km/h 11.9 km/h 44 % 0 mm
22:25 -5.3 °C -9.7 °C 34462.7 hPa SW 2.6 km/h 10.3 km/h 61 % 0 mm
22:28 -3.6 °C -10.9 °C 34361.1 hPa South 6.3 km/h 6.3 km/h 44 % 0 mm
22:35 -3.7 °C -10.9 °C 34428.8 hPa West 11.9 km/h 11.9 km/h 44 % 0 mm
22:40 -3.7 °C -11 °C 34428.8 hPa WSW 11.9 km/h 11.9 km/h 44 % 0 mm
22:45 -3.8 °C -10.9 °C 34395 hPa SW 15 km/h 15 km/h 45 % 0 mm
22:50 -3.8 °C -10.9 °C 34395 hPa SW 15 km/h 15 km/h 45 % 0 mm
22:55 -3.9 °C -11 °C 34395 hPa SW 15 km/h 15 km/h 45 % 0 mm
23:00 -3.9 °C -10.8 °C 34428.8 hPa WSW 9 km/h 9 km/h 46 % 0 mm
23:01 -3.9 °C -10.8 °C 34428.8 hPa WSW 9.3 km/h 9.3 km/h 46 % 0 mm
23:05 -5.3 °C -9.6 °C 34428.8 hPa WSW 5.1 km/h 7.7 km/h 62 % 0 mm
23:06 -3.9 °C -10.8 °C 34428.8 hPa WSW 9 km/h 9 km/h 46 % 0 mm
23:11 -3.9 °C -10.7 °C 34428.8 hPa SW 11.9 km/h 11.9 km/h 47 % 0 mm
23:15 -5.4 °C -9.6 °C 34428.8 hPa WSW 2.6 km/h 7.7 km/h 62 % 0 mm
23:16 -4 °C -10.7 °C 34462.7 hPa SW 11.9 km/h 11.9 km/h 47 % 0 mm
23:21 -4.1 °C -10.8 °C 34462.7 hPa SW 8 km/h 8 km/h 47 % 0 mm
23:25 -5.3 °C -9.6 °C 34462.7 hPa WSW 5.1 km/h 5.1 km/h 62 % 0 mm
23:26 -4.1 °C -10.7 °C 34462.7 hPa SW 6 km/h 6 km/h 48 % 0 mm
23:31 -4.1 °C -10.7 °C 34462.7 hPa SW 6 km/h 6 km/h 48 % 0 mm
23:35 -5.3 °C -9.7 °C 34462.7 hPa West 5.1 km/h 7.7 km/h 61 % 0 mm
23:36 -4.2 °C -10.7 °C 34462.7 hPa West 9 km/h 9 km/h 48 % 0 mm
23:41 -4.2 °C -10.7 °C 34462.7 hPa WSW 6 km/h 6 km/h 48 % 0 mm
23:45 -5.3 °C -9.7 °C 34462.7 hPa West 7.7 km/h 7.7 km/h 61 % 0 mm
23:46 -4.2 °C -10.5 °C 34462.7 hPa West 6 km/h 6 km/h 49 % 0 mm
23:51 -4.2 °C -10.6 °C 34462.7 hPa WSW 9 km/h 9 km/h 49 % 0 mm
23:55 -5.3 °C -9.6 °C 34462.7 hPa West 5.1 km/h 7.7 km/h 62 % 0 mm
23:56 -4.3 °C -10.4 °C 34462.7 hPa SW 6.3 km/h 6.3 km/h 50 % 0 mm
Meteo Sesrovires
Elogis d' Weather Underground - 2 mb

Guio original per  Jim McMurry - jmcmurry@mwt.net Adaptat per a la plantilla per  Wim van der Kuil - Leuven-Template.eu

Trobareu la nostra informacio del temps tambe a:

Weather Underground

AWEKAS